Time;durP1;ratioP1;P1;durP2;ratioP2;P2;SDS_P1;SDS_P2;PMS_P1;PMS_P2;Temp;Humidity;BMP_temperature;BMP_pressure;BME280_temperature;BME280_humidity;BME280_pressure;Samples;Min_cycle;Max_cycle;Signal;HPM_P1;HPM_P2
2022/03/29 00:00:22;;;;;;;20.33;9.63;;;;;;;;;;6215661;28;20168;-80
2022/03/29 00:03:24;;;;;;;20.13;9.80;;;;;;;;;;6215615;28;20046;-79
2022/03/29 00:06:26;;;;;;;18.75;10.27;;;;;;;;;;6215737;28;20042;-80
2022/03/29 00:09:28;;;;;;;19.45;9.95;;;;;;;;;;6239858;28;20049;-80
2022/03/29 00:12:29;;;;;;;18.70;9.23;;;;;;;;;;6237518;28;20046;-79
2022/03/29 00:15:31;;;;;;;17.13;9.90;;;;;;;;;;6216926;28;20077;-80
2022/03/29 00:18:33;;;;;;;23.30;10.27;;;;;;;;;;6246336;28;20184;-81
2022/03/29 00:21:34;;;;;;;18.05;8.73;;;;;;;;;;6208747;28;20119;-81
2022/03/29 00:24:36;;;;;;;20.83;10.27;;;;;;;;;;6212907;28;20053;-83
2022/03/29 00:27:38;;;;;;;17.20;9.77;;;;;;;;;;6246514;28;20096;-81
2022/03/29 00:30:40;;;;;;;19.90;10.60;;;;;;;;;;6217582;28;20048;-82
2022/03/29 00:33:42;;;;;;;19.85;9.23;;;;;;;;;;6219078;28;20120;-81
2022/03/29 00:36:44;;;;;;;21.42;9.77;;;;;;;;;;6216277;28;20042;-81
2022/03/29 00:39:45;;;;;;;18.45;9.60;;;;;;;;;;6218868;28;20140;-81
2022/03/29 00:42:47;;;;;;;18.10;9.38;;;;;;;;;;6217168;28;20041;-80
2022/03/29 00:45:49;;;;;;;19.60;9.52;;;;;;;;;;6210428;28;20080;-81
2022/03/29 00:48:50;;;;;;;21.58;10.55;;;;;;;;;;6218295;28;20045;-81
2022/03/29 00:51:58;;;;;;;21.60;10.90;;;;;;;;;;6239465;28;20196;-80
2022/03/29 00:55:00;;;;;;;19.45;9.85;;;;;;;;;;6229484;28;20053;-80
2022/03/29 00:58:03;;;;;;;22.95;9.70;;;;;;;;;;6218765;28;20092;-80
2022/03/29 01:01:05;;;;;;;20.00;10.40;;;;;;;;;;6219977;28;20069;-81
2022/03/29 01:04:07;;;;;;;19.00;9.50;;;;;;;;;;6252516;28;20050;-80
2022/03/29 01:07:10;;;;;;;18.92;10.45;;;;;;;;;;6222145;28;20058;-81
2022/03/29 01:10:12;;;;;;;19.77;11.30;;;;;;;;;;6244238;28;20527;-82
2022/03/29 01:13:15;;;;;;;21.35;11.48;;;;;;;;;;6242115;28;20637;-82
2022/03/29 01:19:38;;;;;;;23.90;11.57;;;;;;;;;;6235786;28;20084;-82
2022/03/29 01:22:45;;;;;;;28.75;13.60;;;;;;;;;;6202763;28;20124;-80
2022/03/29 01:25:50;;;;;;;27.85;12.15;;;;;;;;;;6220007;28;20041;-79
2022/03/29 01:28:52;;;;;;;24.85;11.60;;;;;;;;;;6211682;28;20037;-80
2022/03/29 01:31:54;;;;;;;23.88;12.02;;;;;;;;;;6233676;28;20060;-81
2022/03/29 01:34:57;;;;;;;26.50;12.25;;;;;;;;;;6234786;28;20063;-78
2022/03/29 01:37:59;;;;;;;24.55;12.38;;;;;;;;;;6230332;28;20140;-82
2022/03/29 01:41:03;;;;;;;24.88;11.48;;;;;;;;;;6247305;28;20064;-82
2022/03/29 01:44:08;;;;;;;24.25;11.38;;;;;;;;;;6225234;28;20049;-80
2022/03/29 01:47:10;;;;;;;21.10;11.23;;;;;;;;;;6219693;28;20049;-81
2022/03/29 01:50:13;;;;;;;24.25;11.32;;;;;;;;;;6234401;28;20054;-81
2022/03/29 01:53:28;;;;;;;23.33;10.63;;;;;;;;;;6216385;28;20043;-80
2022/03/29 01:56:32;;;;;;;24.58;10.60;;;;;;;;;;6212524;28;20124;-81
2022/03/29 02:03:05;;;;;;;20.35;10.32;;;;;;;;;;6203616;28;20045;-81
2022/03/29 02:06:08;;;;;;;21.92;10.82;;;;;;;;;;6217887;28;20313;-82
2022/03/29 02:09:10;;;;;;;25.27;11.40;;;;;;;;;;6201498;28;20042;-81
2022/03/29 02:12:12;;;;;;;22.13;10.67;;;;;;;;;;6225795;28;20116;-80
2022/03/29 02:15:14;;;;;;;20.60;11.15;;;;;;;;;;6203226;28;20449;-80
2022/03/29 02:18:16;;;;;;;22.75;11.13;;;;;;;;;;6197155;28;20562;-81
2022/03/29 02:21:18;;;;;;;19.90;10.32;;;;;;;;;;6199882;28;20046;-82
2022/03/29 02:24:19;;;;;;;23.15;10.65;;;;;;;;;;6201602;28;20105;-81
2022/03/29 02:27:21;;;;;;;21.70;10.80;;;;;;;;;;6227454;28;20540;-81
2022/03/29 02:30:22;;;;;;;24.92;11.18;;;;;;;;;;6249579;28;20057;-82
2022/03/29 02:33:24;;;;;;;19.52;10.00;;;;;;;;;;6225937;28;20088;-82
2022/03/29 02:36:26;;;;;;;25.60;10.57;;;;;;;;;;6228636;28;20049;-81
2022/03/29 02:39:28;;;;;;;18.63;9.45;;;;;;;;;;6259284;28;20045;-78
2022/03/29 02:42:29;;;;;;;24.42;11.32;;;;;;;;;;6251394;28;20077;-82
2022/03/29 02:45:31;;;;;;;20.63;10.70;;;;;;;;;;6239736;28;20500;-81
2022/03/29 02:48:33;;;;;;;22.08;10.70;;;;;;;;;;6233373;28;20045;-82
2022/03/29 02:51:34;;;;;;;20.85;10.15;;;;;;;;;;6247412;28;20506;-79
2022/03/29 02:54:36;;;;;;;22.17;10.68;;;;;;;;;;6229147;28;20125;-82
2022/03/29 02:57:38;;;;;;;24.95;11.02;;;;;;;;;;6250034;28;20049;-82
2022/03/29 03:00:40;;;;;;;21.70;10.40;;;;;;;;;;6223025;28;20053;-82
2022/03/29 03:03:42;;;;;;;21.35;10.82;;;;;;;;;;6224657;28;20042;-82
2022/03/29 03:06:43;;;;;;;22.83;10.85;;;;;;;;;;6245133;28;20073;-81
2022/03/29 03:09:45;;;;;;;25.77;11.82;;;;;;;;;;6223600;28;20045;-81
2022/03/29 03:12:48;;;;;;;25.08;11.80;;;;;;;;;;6222458;28;20736;-81
2022/03/29 03:15:56;;;;;;;24.13;11.30;;;;;;;;;;6221994;28;20072;-82
2022/03/29 03:18:58;;;;;;;24.65;12.18;;;;;;;;;;6231817;28;20042;-81
2022/03/29 03:22:00;;;;;;;23.58;11.82;;;;;;;;;;6247668;28;20099;-79
2022/03/29 03:25:02;;;;;;;27.63;11.68;;;;;;;;;;6221157;28;20048;-80
2022/03/29 03:28:04;;;;;;;26.48;11.02;;;;;;;;;;6235334;28;20091;-81
2022/03/29 03:31:06;;;;;;;28.10;11.65;;;;;;;;;;6246550;28;20056;-81
2022/03/29 03:34:07;;;;;;;22.23;11.07;;;;;;;;;;6260022;28;20096;-80
2022/03/29 03:37:09;;;;;;;30.58;11.43;;;;;;;;;;6241016;28;20042;-81
2022/03/29 03:40:11;;;;;;;23.02;11.55;;;;;;;;;;6227850;28;20408;-82
2022/03/29 03:43:13;;;;;;;27.83;12.10;;;;;;;;;;6224231;28;20132;-83
2022/03/29 03:46:15;;;;;;;25.58;11.65;;;;;;;;;;6210563;28;20236;-83
2022/03/29 03:49:17;;;;;;;23.15;11.57;;;;;;;;;;6222909;28;20045;-81
2022/03/29 03:52:19;;;;;;;21.60;10.90;;;;;;;;;;6239998;28;20041;-82
2022/03/29 03:55:21;;;;;;;22.95;11.63;;;;;;;;;;6221095;28;20050;-79
2022/03/29 03:58:23;;;;;;;22.98;11.10;;;;;;;;;;6218358;28;20058;-80
2022/03/29 04:01:24;;;;;;;25.48;11.35;;;;;;;;;;6218626;28;20135;-83
2022/03/29 04:04:26;;;;;;;25.35;11.70;;;;;;;;;;6219986;28;20045;-82
2022/03/29 04:07:28;;;;;;;25.58;11.90;;;;;;;;;;6202662;28;20104;-82
2022/03/29 04:10:31;;;;;;;23.50;11.23;;;;;;;;;;6219140;28;20100;-83
2022/03/29 04:13:34;;;;;;;25.48;11.82;;;;;;;;;;6235129;28;20093;-82
2022/03/29 04:16:35;;;;;;;27.02;12.20;;;;;;;;;;6203577;28;20062;-81
2022/03/29 04:19:37;;;;;;;22.65;12.68;;;;;;;;;;6203421;28;20041;-82
2022/03/29 04:22:39;;;;;;;26.52;11.60;;;;;;;;;;6232151;28;20296;-80
2022/03/29 04:25:41;;;;;;;27.45;12.95;;;;;;;;;;6244458;28;20048;-82
2022/03/29 04:28:42;;;;;;;27.92;11.82;;;;;;;;;;6242282;28;20049;-81
2022/03/29 04:31:44;;;;;;;28.95;12.25;;;;;;;;;;6244721;28;20491;-81
2022/03/29 04:34:47;;;;;;;27.67;12.70;;;;;;;;;;6243278;28;20091;-82
2022/03/29 04:37:49;;;;;;;22.95;11.57;;;;;;;;;;6243979;28;20109;-81
2022/03/29 04:40:52;;;;;;;26.88;11.52;;;;;;;;;;6233933;28;20144;-80
2022/03/29 04:43:53;;;;;;;27.07;12.17;;;;;;;;;;6226814;28;20072;-81
2022/03/29 04:46:55;;;;;;;23.77;13.85;;;;;;;;;;6245449;28;20452;-80
2022/03/29 04:49:56;;;;;;;27.13;13.15;;;;;;;;;;6240918;28;20479;-83
2022/03/29 04:52:58;;;;;;;26.80;12.65;;;;;;;;;;6233722;28;20128;-82
2022/03/29 04:56:00;;;;;;;26.38;12.75;;;;;;;;;;6217198;28;20427;-82
2022/03/29 04:59:01;;;;;;;27.70;15.02;;;;;;;;;;6217465;28;20088;-82
2022/03/29 05:02:03;;;;;;;33.30;14.15;;;;;;;;;;6218792;28;20065;-82
2022/03/29 05:05:05;;;;;;;26.88;13.63;;;;;;;;;;6218357;28;20042;-82
2022/03/29 05:08:07;;;;;;;32.75;15.15;;;;;;;;;;6218396;28;20149;-83
2022/03/29 05:11:09;;;;;;;30.08;13.45;;;;;;;;;;6218623;28;20072;-83
2022/03/29 05:14:10;;;;;;;32.45;13.63;;;;;;;;;;6226067;28;20175;-81
2022/03/29 05:17:12;;;;;;;27.55;13.48;;;;;;;;;;6242432;28;20087;-80
2022/03/29 05:20:15;;;;;;;27.88;12.93;;;;;;;;;;6243660;28;20084;-81
2022/03/29 05:23:17;;;;;;;31.65;13.82;;;;;;;;;;6237821;28;20041;-81
2022/03/29 05:26:19;;;;;;;34.37;13.63;;;;;;;;;;6218750;28;20069;-82
2022/03/29 05:29:21;;;;;;;28.02;12.77;;;;;;;;;;6217371;28;20073;-82
2022/03/29 05:32:23;;;;;;;30.77;14.25;;;;;;;;;;6221988;28;20102;-83
2022/03/29 05:35:29;;;;;;;25.88;11.93;;;;;;;;;;6225489;28;20054;-83
2022/03/29 05:38:31;;;;;;;31.10;13.50;;;;;;;;;;6242264;28;20065;-83
2022/03/29 05:41:33;;;;;;;32.67;14.27;;;;;;;;;;6281235;28;20045;-84
2022/03/29 05:44:35;;;;;;;27.77;13.55;;;;;;;;;;6247665;28;20045;-84
2022/03/29 05:50:57;;;;;;;28.77;13.18;;;;;;;;;;6235027;28;20512;-83
2022/03/29 05:54:01;;;;;;;30.48;14.13;;;;;;;;;;6240247;28;20201;-83
2022/03/29 05:57:03;;;;;;;26.33;12.85;;;;;;;;;;6247835;28;20136;-83
2022/03/29 06:00:08;;;;;;;29.77;13.50;;;;;;;;;;6221627;28;20742;-82
2022/03/29 06:03:17;;;;;;;36.90;16.23;;;;;;;;;;6223151;28;20053;-82
2022/03/29 06:06:19;;;;;;;37.15;16.13;;;;;;;;;;6221621;28;20569;-83
2022/03/29 06:09:21;;;;;;;39.63;18.88;;;;;;;;;;6208095;28;20068;-83
2022/03/29 06:12:24;;;;;;;38.03;18.90;;;;;;;;;;6220887;28;20479;-84
2022/03/29 06:15:26;;;;;;;36.08;19.65;;;;;;;;;;6222395;28;20077;-83
2022/03/29 06:18:28;;;;;;;35.33;17.30;;;;;;;;;;6237371;28;20049;-83
2022/03/29 06:21:30;;;;;;;35.92;15.73;;;;;;;;;;6203608;28;20449;-82
2022/03/29 06:24:32;;;;;;;36.53;17.27;;;;;;;;;;6222087;28;20061;-82
2022/03/29 06:27:34;;;;;;;36.70;16.48;;;;;;;;;;6205189;28;20100;-83
2022/03/29 06:30:35;;;;;;;37.50;14.90;;;;;;;;;;6220509;28;20533;-82
2022/03/29 06:33:37;;;;;;;33.13;15.15;;;;;;;;;;6256923;28;20053;-80
2022/03/29 06:36:38;;;;;;;30.98;14.65;;;;;;;;;;6232308;28;20069;-82
2022/03/29 06:39:40;;;;;;;31.92;15.35;;;;;;;;;;6249342;28;20041;-84
2022/03/29 06:42:42;;;;;;;35.53;15.43;;;;;;;;;;6246726;28;20133;-83
2022/03/29 06:45:44;;;;;;;27.08;14.35;;;;;;;;;;6224881;28;20042;-85
2022/03/29 06:48:46;;;;;;;33.75;15.25;;;;;;;;;;6223640;28;20701;-82
2022/03/29 06:51:48;;;;;;;34.13;15.13;;;;;;;;;;6222293;28;20129;-83
2022/03/29 06:54:50;;;;;;;31.77;15.27;;;;;;;;;;6225718;28;20046;-82
2022/03/29 06:57:52;;;;;;;33.55;15.18;;;;;;;;;;6247405;28;20041;-84
2022/03/29 07:00:54;;;;;;;36.92;15.75;;;;;;;;;;6221054;28;20466;-81
2022/03/29 07:03:59;;;;;;;40.20;18.00;;;;;;;;;;6222719;28;20080;-82
2022/03/29 07:07:01;;;;;;;39.13;15.98;;;;;;;;;;6227412;28;20445;-83
2022/03/29 07:13:23;;;;;;;36.65;16.02;;;;;;;;;;6226040;28;20046;-81
2022/03/29 07:16:25;;;;;;;30.63;15.60;;;;;;;;;;6229367;28;20092;-82
2022/03/29 07:19:27;;;;;;;34.80;16.03;;;;;;;;;;6229424;28;20058;-82
2022/03/29 07:22:29;;;;;;;33.40;16.00;;;;;;;;;;6234530;28;20049;-83
2022/03/29 07:25:32;;;;;;;36.20;16.42;;;;;;;;;;6253569;28;20042;-83
2022/03/29 07:28:34;;;;;;;39.63;16.60;;;;;;;;;;6232254;28;20042;-81
2022/03/29 07:31:36;;;;;;;35.22;15.90;;;;;;;;;;6228194;28;20049;-80
2022/03/29 07:34:38;;;;;;;37.20;16.35;;;;;;;;;;6230133;28;20117;-81
2022/03/29 07:37:41;;;;;;;34.90;16.67;;;;;;;;;;6230075;28;20181;-81
2022/03/29 07:40:43;;;;;;;34.25;15.65;;;;;;;;;;6257090;28;20054;-81
2022/03/29 07:43:45;;;;;;;34.58;16.58;;;;;;;;;;6246341;28;20053;-79
2022/03/29 07:46:47;;;;;;;35.58;16.67;;;;;;;;;;6239654;28;20145;-79
2022/03/29 07:49:49;;;;;;;37.67;18.00;;;;;;;;;;6252947;28;20038;-79
2022/03/29 07:53:10;;;;;;;39.65;17.83;;;;;;;;;;6232025;28;20060;-79
2022/03/29 07:56:12;;;;;;;36.75;16.60;;;;;;;;;;6228654;28;20084;-80
2022/03/29 07:59:14;;;;;;;34.05;16.33;;;;;;;;;;6219222;28;20082;-82
2022/03/29 08:02:16;;;;;;;36.47;17.90;;;;;;;;;;6227069;28;20129;-80
2022/03/29 08:05:18;;;;;;;34.50;16.05;;;;;;;;;;6249460;28;20080;-80
2022/03/29 08:08:20;;;;;;;36.05;16.08;;;;;;;;;;6252850;28;20119;-80
2022/03/29 08:11:22;;;;;;;30.80;14.27;;;;;;;;;;6253040;28;20095;-79
2022/03/29 08:14:25;;;;;;;27.35;14.75;;;;;;;;;;6253416;28;20080;-83
2022/03/29 08:17:27;;;;;;;31.35;14.98;;;;;;;;;;6253145;28;20076;-79
2022/03/29 08:20:29;;;;;;;29.15;13.60;;;;;;;;;;6253211;28;20050;-80
2022/03/29 08:23:31;;;;;;;31.95;14.15;;;;;;;;;;6240801;28;20038;-80
2022/03/29 08:26:33;;;;;;;34.10;15.50;;;;;;;;;;6231432;28;20046;-80
2022/03/29 08:29:35;;;;;;;28.80;13.63;;;;;;;;;;6243397;28;20042;-80
2022/03/29 08:32:37;;;;;;;29.20;13.60;;;;;;;;;;6252635;28;20057;-80
2022/03/29 08:35:39;;;;;;;26.35;12.82;;;;;;;;;;6250424;28;20053;-80
2022/03/29 08:38:41;;;;;;;24.48;11.02;;;;;;;;;;6254911;28;20160;-79
2022/03/29 08:42:02;;;;;;;30.52;13.02;;;;;;;;;;6245701;28;20056;-80
2022/03/29 08:45:08;;;;;;;24.23;11.85;;;;;;;;;;6235615;28;20037;-81
2022/03/29 08:48:11;;;;;;;24.00;9.93;;;;;;;;;;6242849;28;20103;-79
2022/03/29 08:51:13;;;;;;;19.90;9.20;;;;;;;;;;6223728;28;20049;-79
2022/03/29 08:54:34;;;;;;;18.05;8.77;;;;;;;;;;6243247;28;20049;-82
2022/03/29 08:57:38;;;;;;;16.40;8.93;;;;;;;;;;6248328;28;20080;-79
2022/03/29 09:00:41;;;;;;;;;;;;;;;;;;6230175;28;20065;-85
2022/03/29 09:03:43;;;;;;;12.95;7.47;;;;;;;;;;6227407;28;19929;-85
2022/03/29 09:06:50;;;;;;;19.13;8.30;;;;;;;;;;6235453;28;20458;-79
2022/03/29 09:10:03;;;;;;;15.50;6.88;;;;;;;;;;6251308;28;20048;-81
2022/03/29 09:13:19;;;;;;;13.55;7.32;;;;;;;;;;6249531;28;20052;-81
2022/03/29 09:16:31;;;;;;;15.30;8.45;;;;;;;;;;6251601;28;20053;-81
2022/03/29 09:19:48;;;;;;;11.90;7.25;;;;;;;;;;6248619;28;20069;-78
2022/03/29 09:22:55;;;;;;;13.38;6.78;;;;;;;;;;6238289;28;20045;-78
2022/03/29 09:25:56;;;;;;;11.20;5.90;;;;;;;;;;6222585;28;20053;-79
2022/03/29 09:29:01;;;;;;;9.77;5.45;;;;;;;;;;6218971;28;20053;-79
2022/03/29 09:32:09;;;;;;;8.65;5.25;;;;;;;;;;6220313;28;20072;-78
2022/03/29 09:35:14;;;;;;;8.18;5.25;;;;;;;;;;6221419;28;20137;-79
2022/03/29 09:38:21;;;;;;;8.25;5.13;;;;;;;;;;6228711;28;20101;-80
2022/03/29 09:41:26;;;;;;;9.15;5.53;;;;;;;;;;6246933;28;20068;-80
2022/03/29 09:44:42;;;;;;;10.63;5.60;;;;;;;;;;6239871;28;20038;-77
2022/03/29 09:47:44;;;;;;;8.00;4.68;;;;;;;;;;6216775;28;20129;-77
2022/03/29 09:50:45;;;;;;;9.25;5.38;;;;;;;;;;6234265;28;20557;-76
2022/03/29 09:53:52;;;;;;;11.80;5.25;;;;;;;;;;6210461;28;20126;-77
2022/03/29 09:56:57;;;;;;;9.38;4.50;;;;;;;;;;6208701;28;20514;-77
2022/03/29 09:59:59;;;;;;;8.15;5.00;;;;;;;;;;6210626;28;20085;-77
2022/03/29 10:03:02;;;;;;;12.13;5.30;;;;;;;;;;6211127;28;20046;-78
2022/03/29 10:06:05;;;;;;;11.23;6.35;;;;;;;;;;6210550;28;20061;-78
2022/03/29 10:09:26;;;;;;;8.77;4.13;;;;;;;;;;6210373;28;20822;-77
2022/03/29 10:12:29;;;;;;;8.45;5.03;;;;;;;;;;6209913;28;20121;-77
2022/03/29 10:15:30;;;;;;;11.30;5.35;;;;;;;;;;6210975;28;20075;-78
2022/03/29 10:18:34;;;;;;;9.70;5.00;;;;;;;;;;6211563;28;20042;-78
2022/03/29 10:21:36;;;;;;;9.40;5.30;;;;;;;;;;6215539;28;20510;-78
2022/03/29 10:24:38;;;;;;;10.48;4.15;;;;;;;;;;6214709;28;20038;-80
2022/03/29 10:27:42;;;;;;;6.93;4.07;;;;;;;;;;6213426;28;20046;-78
2022/03/29 10:30:44;;;;;;;6.55;4.15;;;;;;;;;;6210192;28;20500;-77
2022/03/29 10:33:45;;;;;;;7.22;4.20;;;;;;;;;;6217142;28;20128;-78
2022/03/29 10:37:00;;;;;;;7.97;4.97;;;;;;;;;;6222768;28;20069;-78
2022/03/29 10:40:07;;;;;;;7.57;4.53;;;;;;;;;;6243592;28;20119;-77
2022/03/29 10:43:29;;;;;;;8.05;4.53;;;;;;;;;;6243560;28;20124;-78
2022/03/29 10:46:37;;;;;;;9.63;4.47;;;;;;;;;;6235953;28;20104;-76
2022/03/29 10:49:48;;;;;;;7.88;3.90;;;;;;;;;;6220894;28;20048;-80
2022/03/29 10:52:50;;;;;;;4.55;2.72;;;;;;;;;;6247761;28;20093;-79
2022/03/29 10:56:10;;;;;;;6.85;4.07;;;;;;;;;;6217763;28;20065;-78
2022/03/29 10:59:13;;;;;;;8.43;3.72;;;;;;;;;;6217973;28;20100;-77
2022/03/29 11:02:20;;;;;;;6.67;4.27;;;;;;;;;;6218394;28;20200;-78
2022/03/29 11:05:22;;;;;;;6.72;3.35;;;;;;;;;;6218879;28;20177;-78
2022/03/29 11:08:24;;;;;;;4.93;3.30;;;;;;;;;;6214828;28;20120;-78
2022/03/29 11:11:46;;;;;;;7.05;3.47;;;;;;;;;;6219003;28;20125;-79
2022/03/29 11:14:48;;;;;;;5.47;3.60;;;;;;;;;;6217955;28;20065;-79
2022/03/29 11:17:51;;;;;;;4.18;3.30;;;;;;;;;;6220366;28;20080;-78
2022/03/29 11:20:56;;;;;;;6.28;3.15;;;;;;;;;;6215536;28;20550;-78
2022/03/29 11:24:00;;;;;;;12.57;3.75;;;;;;;;;;6239189;28;20068;-77
2022/03/29 11:27:02;;;;;;;5.35;3.22;;;;;;;;;;6243594;28;20065;-78
2022/03/29 11:30:07;;;;;;;7.40;3.20;;;;;;;;;;6229711;28;20119;-77
2022/03/29 11:33:10;;;;;;;6.00;3.00;;;;;;;;;;6217324;28;20065;-78
2022/03/29 11:36:12;;;;;;;6.53;3.08;;;;;;;;;;6217064;28;20105;-78
2022/03/29 11:39:22;;;;;;;5.07;2.90;;;;;;;;;;6215192;28;20092;-77
2022/03/29 11:42:24;;;;;;;3.42;2.70;;;;;;;;;;6214400;28;20069;-78
2022/03/29 11:45:29;;;;;;;4.40;2.60;;;;;;;;;;6214931;28;20172;-77
2022/03/29 11:48:31;;;;;;;5.93;2.50;;;;;;;;;;6190419;28;20622;-77
2022/03/29 11:51:32;;;;;;;6.63;2.58;;;;;;;;;;6211998;28;20129;-78
2022/03/29 11:54:43;;;;;;;3.65;2.58;;;;;;;;;;6230697;28;20060;-76
2022/03/29 11:57:45;;;;;;;5.10;3.00;;;;;;;;;;6215568;28;20141;-77
2022/03/29 12:00:46;;;;;;;4.75;2.50;;;;;;;;;;6231935;28;20186;-78
2022/03/29 12:04:03;;;;;;;4.50;2.78;;;;;;;;;;6230018;28;20049;-77
2022/03/29 12:07:05;;;;;;;2.83;2.15;;;;;;;;;;6215484;28;20049;-78
2022/03/29 12:10:07;;;;;;;4.72;2.47;;;;;;;;;;6227063;28;20436;-77
2022/03/29 12:13:15;;;;;;;4.47;2.23;;;;;;;;;;6206846;28;20072;-79
2022/03/29 12:16:19;;;;;;;4.90;2.60;;;;;;;;;;6233523;28;20077;-76
2022/03/29 12:19:22;;;;;;;5.03;2.95;;;;;;;;;;6232288;28;20060;-77
2022/03/29 12:22:26;;;;;;;4.72;2.70;;;;;;;;;;6201742;28;20054;-78
2022/03/29 12:25:28;;;;;;;3.65;2.42;;;;;;;;;;6228385;28;20045;-78
2022/03/29 12:28:31;;;;;;;4.57;2.80;;;;;;;;;;6219429;28;20112;-79
2022/03/29 12:31:35;;;;;;;4.50;3.10;;;;;;;;;;6204788;28;20102;-78
2022/03/29 12:34:38;;;;;;;7.07;3.60;;;;;;;;;;6216041;28;20042;-78
2022/03/29 12:37:42;;;;;;;6.00;2.97;;;;;;;;;;6205785;28;20062;-79
2022/03/29 12:40:55;;;;;;;4.07;2.47;;;;;;;;;;6232293;28;20140;-79
2022/03/29 12:43:57;;;;;;;4.30;2.50;;;;;;;;;;6217935;28;20101;-79
2022/03/29 12:46:59;;;;;;;5.95;2.80;;;;;;;;;;6226205;28;20066;-80
2022/03/29 12:50:03;;;;;;;3.05;2.20;;;;;;;;;;6251514;28;20065;-79
2022/03/29 12:53:10;;;;;;;4.22;2.85;;;;;;;;;;6229482;28;20060;-79
2022/03/29 12:56:12;;;;;;;4.70;3.20;;;;;;;;;;6227932;28;20104;-80
2022/03/29 12:59:32;;;;;;;3.67;2.47;;;;;;;;;;6225797;28;20077;-80
2022/03/29 13:02:41;;;;;;;4.63;2.40;;;;;;;;;;6223708;28;20045;-79
2022/03/29 13:05:48;;;;;;;5.55;2.70;;;;;;;;;;6221259;28;20049;-79
2022/03/29 13:09:00;;;;;;;4.50;2.63;;;;;;;;;;6222143;28;20096;-78
2022/03/29 13:12:15;;;;;;;3.65;2.50;;;;;;;;;;6216432;28;20074;-79
2022/03/29 13:15:41;;;;;;;4.72;2.50;;;;;;;;;;6233519;28;20132;-77
2022/03/29 13:18:52;;;;;;;5.68;2.58;;;;;;;;;;6248197;28;20053;-78
2022/03/29 13:22:02;;;;;;;4.30;2.97;;;;;;;;;;6241829;28;20049;-79
2022/03/29 13:25:09;;;;;;;5.75;2.80;;;;;;;;;;6219201;28;20121;-81
2022/03/29 13:28:11;;;;;;;5.82;3.00;;;;;;;;;;6209643;28;20046;-80
2022/03/29 13:31:14;;;;;;;6.22;3.13;;;;;;;;;;6212195;28;20069;-78
2022/03/29 13:34:16;;;;;;;3.45;2.17;;;;;;;;;;6217957;28;20052;-82
2022/03/29 13:37:18;;;;;;;4.28;2.50;;;;;;;;;;6215174;28;20088;-79
2022/03/29 13:40:20;;;;;;;7.68;3.00;;;;;;;;;;6247187;28;20188;-80
2022/03/29 13:43:21;;;;;;;5.03;2.50;;;;;;;;;;6215238;28;20142;-80
2022/03/29 13:46:25;;;;;;;5.45;2.90;;;;;;;;;;6216510;28;20119;-81
2022/03/29 13:49:39;;;;;;;4.43;2.50;;;;;;;;;;6245653;28;20046;-81
2022/03/29 13:52:41;;;;;;;3.38;2.45;;;;;;;;;;6233321;28;20048;-80
2022/03/29 13:55:42;;;;;;;3.95;2.47;;;;;;;;;;6231887;28;20729;-80
2022/03/29 13:58:44;;;;;;;4.45;2.33;;;;;;;;;;6215731;28;20080;-79
2022/03/29 14:01:46;;;;;;;3.65;2.83;;;;;;;;;;6217538;28;20061;-82
2022/03/29 14:04:48;;;;;;;7.07;2.50;;;;;;;;;;6200860;28;20049;-80
2022/03/29 14:07:50;;;;;;;4.88;2.45;;;;;;;;;;6220724;28;20135;-80
2022/03/29 14:11:00;;;;;;;4.50;2.40;;;;;;;;;;6243865;28;20121;-79
2022/03/29 14:14:02;;;;;;;4.03;2.40;;;;;;;;;;6235199;28;20581;-82
2022/03/29 14:17:04;;;;;;;8.70;3.20;;;;;;;;;;6222342;28;20095;-82
2022/03/29 14:20:06;;;;;;;5.25;3.00;;;;;;;;;;6221785;28;20042;-81
2022/03/29 14:23:10;;;;;;;3.60;2.83;;;;;;;;;;6237103;28;20184;-81
2022/03/29 14:26:12;;;;;;;5.93;3.20;;;;;;;;;;6237351;28;20077;-80
2022/03/29 14:29:13;;;;;;;8.27;3.13;;;;;;;;;;6222432;28;20569;-80
2022/03/29 14:32:35;;;;;;;6.95;2.83;;;;;;;;;;6220770;28;20060;-80
2022/03/29 14:35:37;;;;;;;4.68;3.08;;;;;;;;;;6222357;28;20056;-81
2022/03/29 14:38:39;;;;;;;5.95;3.70;;;;;;;;;;6231367;28;20252;-80
2022/03/29 14:41:58;;;;;;;7.18;3.22;;;;;;;;;;6245149;28;20056;-81
2022/03/29 14:45:01;;;;;;;6.38;3.13;;;;;;;;;;6245998;28;20046;-81
2022/03/29 14:48:03;;;;;;;8.02;3.33;;;;;;;;;;6226493;28;20046;-81
2022/03/29 14:51:25;;;;;;;6.47;3.42;;;;;;;;;;6222427;28;20117;-81
2022/03/29 14:54:27;;;;;;;8.48;3.92;;;;;;;;;;6224837;28;20045;-81
2022/03/29 14:57:29;;;;;;;6.28;3.58;;;;;;;;;;6219641;28;20142;-81
2022/03/29 15:00:31;;;;;;;5.83;3.80;;;;;;;;;;6211721;28;20198;-80
2022/03/29 15:03:34;;;;;;;6.63;3.65;;;;;;;;;;6240772;28;20107;-81
2022/03/29 15:06:36;;;;;;;8.38;3.88;;;;;;;;;;6222057;28;20439;-80
2022/03/29 15:09:38;;;;;;;6.43;3.05;;;;;;;;;;6240617;28;20069;-81
2022/03/29 15:12:40;;;;;;;7.32;3.28;;;;;;;;;;6228579;28;20056;-80
2022/03/29 15:15:42;;;;;;;5.30;3.20;;;;;;;;;;6214970;28;20131;-80
2022/03/29 15:18:44;;;;;;;7.00;3.15;;;;;;;;;;6225570;28;20454;-79
2022/03/29 15:21:46;;;;;;;6.65;4.03;;;;;;;;;;6226517;28;20060;-79
2022/03/29 15:24:51;;;;;;;5.43;3.47;;;;;;;;;;6225327;28;20500;-79
2022/03/29 15:27:53;;;;;;;5.18;3.35;;;;;;;;;;6204190;28;20038;-79
2022/03/29 15:30:57;;;;;;;5.65;3.38;;;;;;;;;;6218313;28;20093;-78
2022/03/29 15:34:02;;;;;;;8.63;4.07;;;;;;;;;;6221483;28;20038;-79
2022/03/29 15:37:09;;;;;;;16.08;7.68;;;;;;;;;;6237659;28;20046;-78
2022/03/29 15:40:11;;;;;;;7.85;4.07;;;;;;;;;;6229145;28;20045;-78
2022/03/29 15:43:14;;;;;;;9.00;4.60;;;;;;;;;;6204024;28;20049;-78
2022/03/29 15:46:19;;;;;;;23.65;17.27;;;;;;;;;;6204924;28;20619;-80
2022/03/29 15:49:25;;;;;;;16.75;11.02;;;;;;;;;;6257164;28;20080;-80
2022/03/29 15:52:28;;;;;;;11.00;6.78;;;;;;;;;;6219294;28;20048;-80
2022/03/29 15:55:36;;;;;;;14.35;9.35;;;;;;;;;;6216483;28;20575;-80
2022/03/29 15:58:38;;;;;;;6.28;3.35;;;;;;;;;;6211989;28;20050;-80
2022/03/29 16:01:51;;;;;;;7.32;3.20;;;;;;;;;;6212954;28;20064;-79
2022/03/29 16:04:53;;;;;;;6.78;4.22;;;;;;;;;;6202606;28;20177;-80
2022/03/29 16:07:57;;;;;;;7.28;4.18;;;;;;;;;;6220022;28;20088;-80
2022/03/29 16:11:01;;;;;;;5.80;3.25;;;;;;;;;;6229363;28;20049;-80
2022/03/29 16:14:03;;;;;;;7.05;3.33;;;;;;;;;;6225674;28;20057;-80
2022/03/29 16:17:05;;;;;;;7.45;3.60;;;;;;;;;;6207529;28;20122;-80
2022/03/29 16:20:08;;;;;;;6.63;3.33;;;;;;;;;;6218685;28;20042;-80
2022/03/29 16:23:10;;;;;;;5.00;2.85;;;;;;;;;;6224364;28;20148;-78
2022/03/29 16:26:13;;;;;;;5.63;3.10;;;;;;;;;;6223895;28;20066;-78
2022/03/29 16:29:14;;;;;;;4.45;2.67;;;;;;;;;;6220907;28;20064;-79
2022/03/29 16:32:18;;;;;;;4.32;2.78;;;;;;;;;;6205902;28;20110;-78
2022/03/29 16:35:20;;;;;;;5.40;3.10;;;;;;;;;;6253804;28;20039;-79
2022/03/29 16:38:22;;;;;;;5.53;3.40;;;;;;;;;;6210303;28;21360;-79
2022/03/29 16:41:23;;;;;;;6.13;3.13;;;;;;;;;;6220607;28;20120;-79
2022/03/29 16:44:25;;;;;;;8.05;3.35;;;;;;;;;;6211418;28;20531;-79
2022/03/29 16:47:26;;;;;;;5.65;3.35;;;;;;;;;;6210859;28;20053;-79
2022/03/29 16:50:28;;;;;;;6.50;3.42;;;;;;;;;;6250181;28;20117;-78
2022/03/29 16:53:30;;;;;;;5.82;3.35;;;;;;;;;;6223458;28;20038;-79
2022/03/29 16:56:32;;;;;;;5.97;3.58;;;;;;;;;;6215396;28;20042;-78
2022/03/29 16:59:41;;;;;;;5.68;3.30;;;;;;;;;;6298650;27;21432;-80
2022/03/29 17:02:43;;;;;;;4.68;3.00;;;;;;;;;;6309694;28;20040;-79
2022/03/29 17:05:45;;;;;;;6.13;3.50;;;;;;;;;;6284089;28;20036;-78
2022/03/29 17:08:49;;;;;;;7.75;3.35;;;;;;;;;;6267571;28;20055;-79
2022/03/29 17:11:51;;;;;;;6.15;4.20;;;;;;;;;;6261188;28;20588;-79
2022/03/29 17:14:53;;;;;;;8.10;4.85;;;;;;;;;;6238763;28;20065;-79
2022/03/29 17:17:54;;;;;;;7.60;4.53;;;;;;;;;;6228863;28;20511;-80
2022/03/29 17:20:57;;;;;;;8.52;4.55;;;;;;;;;;6248540;28;20891;-80
2022/03/29 17:24:01;;;;;;;;;;;;;;;;;;6229768;28;20152;-79
2022/03/29 17:27:06;;;;;;;8.32;4.35;;;;;;;;;;6228748;28;19925;-78
2022/03/29 17:30:09;;;;;;;8.70;4.95;;;;;;;;;;6260726;28;20044;-80
2022/03/29 17:33:10;;;;;;;8.93;5.05;;;;;;;;;;6278998;28;20104;-80
2022/03/29 17:36:13;;;;;;;9.18;5.03;;;;;;;;;;6280807;28;20053;-78
2022/03/29 17:39:16;;;;;;;8.27;4.70;;;;;;;;;;6272457;28;20041;-79
2022/03/29 17:42:18;;;;;;;;;;;;;;;;;;6278364;28;20115;-78
2022/03/29 17:45:19;;;;;;;8.73;4.40;;;;;;;;;;6238924;28;19925;-78
2022/03/29 17:48:22;;;;;;;9.63;5.20;;;;;;;;;;6274643;28;20119;-80
2022/03/29 17:51:23;;;;;;;14.48;4.97;;;;;;;;;;6268108;28;20211;-80
2022/03/29 17:54:25;;;;;;;13.93;7.53;;;;;;;;;;6249559;28;20128;-78
2022/03/29 17:57:27;;;;;;;24.70;14.15;;;;;;;;;;6250137;28;20045;-79
2022/03/29 18:00:28;;;;;;;17.95;11.02;;;;;;;;;;6250295;28;20087;-78
2022/03/29 18:03:31;;;;;;;13.45;5.50;;;;;;;;;;6252041;28;20510;-79
2022/03/29 18:06:33;;;;;;;9.93;5.00;;;;;;;;;;6250522;28;20179;-78
2022/03/29 18:09:35;;;;;;;10.88;6.55;;;;;;;;;;6243865;28;20124;-79
2022/03/29 18:12:39;;;;;;;11.15;6.13;;;;;;;;;;6259412;28;20575;-80
2022/03/29 18:15:41;;;;;;;11.15;5.50;;;;;;;;;;6216248;28;20045;-79
2022/03/29 18:18:43;;;;;;;11.98;5.95;;;;;;;;;;6214238;28;20041;-80